createdAt,value
2022-09-03T00:00:25.118Z,94859.57
2022-09-03T00:02:58.633Z,94855.98
2022-09-03T00:05:47.524Z,94851.34
2022-09-03T00:08:28.605Z,94843.95
2022-09-03T00:11:15.067Z,94841.32
2022-09-03T00:14:04.506Z,94844.25
2022-09-03T00:16:45.160Z,94848.45
2022-09-03T00:19:18.095Z,94848.09
2022-09-03T00:22:11.502Z,94850.16
2022-09-03T00:24:42.386Z,94855.08
2022-09-03T00:27:16.639Z,94861.73
2022-09-03T00:29:56.078Z,94873.30
2022-09-03T00:32:48.398Z,94880.28
2022-09-03T00:35:33.290Z,94877.13
2022-09-03T00:38:00.896Z,94882.77
2022-09-03T00:41:08.740Z,94881.14
2022-09-03T00:43:56.860Z,94882.30
2022-09-03T00:46:31.789Z,94881.12
2022-09-03T00:49:25.331Z,94884.04
2022-09-03T00:51:58.725Z,94888.40
2022-09-03T00:54:50.396Z,94885.05
2022-09-03T00:57:35.512Z,94881.66
2022-09-03T01:00:15.591Z,94874.29
2022-09-03T01:02:48.523Z,94875.92
2022-09-03T01:06:14.586Z,94873.13
2022-09-03T01:09:26.995Z,94862.28
2022-09-03T01:12:03.902Z,94860.85
2022-09-03T01:14:55.486Z,94864.93
2022-09-03T01:17:37.675Z,94868.79
2022-09-03T01:20:36.007Z,94870.91
2022-09-03T01:23:12.353Z,94868.95
2022-09-03T01:25:47.927Z,94871.61
2022-09-03T01:28:33.539Z,94878.09
2022-09-03T01:31:19.689Z,94884.54
2022-09-03T01:34:13.348Z,94885.42
2022-09-03T01:37:18.717Z,94885.06
2022-09-03T01:40:03.968Z,94887.13
2022-09-03T01:42:50.018Z,94882.80
2022-09-03T01:45:36.120Z,94882.98
2022-09-03T01:48:44.248Z,94880.92
2022-09-03T01:51:23.738Z,94885.23
2022-09-03T01:54:10.991Z,94888.86
2022-09-03T01:57:24.254Z,94890.05
2022-09-03T02:00:02.979Z,94893.84
2022-09-03T02:02:31.044Z,94891.31
2022-09-03T02:05:14.992Z,94898.99
2022-09-03T02:07:48.237Z,94901.54
2022-09-03T02:10:19.716Z,94899.73
2022-09-03T02:12:54.831Z,94906.73
2022-09-03T02:15:25.766Z,94903.34
2022-09-03T02:17:56.543Z,94905.96
2022-09-03T02:20:27.425Z,94901.61
2022-09-03T02:22:55.203Z,94898.09
2022-09-03T02:25:27.945Z,94897.37
2022-09-03T02:27:54.952Z,94900.95
2022-09-03T02:30:21.676Z,94900.29
2022-09-03T02:32:48.512Z,94899.41
2022-09-03T02:35:15.371Z,94897.55
2022-09-03T02:37:42.331Z,94895.92
2022-09-03T02:40:11.246Z,94894.05
2022-09-03T02:42:38.084Z,94899.24
2022-09-03T02:45:29.689Z,94899.55
2022-09-03T02:48:00.424Z,94892.66
2022-09-03T02:50:27.436Z,94894.36
2022-09-03T02:52:54.581Z,94897.46
2022-09-03T02:55:21.763Z,94894.99
2022-09-03T02:57:49.151Z,94887.59
2022-09-03T03:00:16.215Z,94889.09
2022-09-03T03:02:43.926Z,94886.30
2022-09-03T03:05:19.436Z,94886.29
2022-09-03T03:07:46.246Z,94887.54
2022-09-03T03:10:13.144Z,94893.38
2022-09-03T03:12:40.566Z,94897.35
2022-09-03T03:15:08.257Z,94893.83
2022-09-03T03:17:34.960Z,94892.68
2022-09-03T03:20:01.752Z,94891.70
2022-09-03T03:22:29.282Z,94897.72
2022-09-03T03:24:57.857Z,94906.60
2022-09-03T03:27:24.833Z,94906.98
2022-09-03T03:29:52.545Z,94906.89
2022-09-03T03:32:19.403Z,94906.46
2022-09-03T03:34:46.715Z,94905.98
2022-09-03T03:37:13.453Z,94907.37
2022-09-03T03:39:40.505Z,94912.02
2022-09-03T03:42:07.628Z,94913.31
2022-09-03T03:44:34.391Z,94917.92
2022-09-03T03:47:01.320Z,94927.27
2022-09-03T03:49:28.212Z,94926.09
2022-09-03T03:51:54.950Z,94918.98
2022-09-03T03:54:22.699Z,94922.67
2022-09-03T03:56:55.695Z,94920.83
2022-09-03T03:59:23.729Z,94928.54
2022-09-03T04:01:51.058Z,94930.29
2022-09-03T04:04:18.111Z,94933.48
2022-09-03T04:06:44.791Z,94932.48
2022-09-03T04:09:11.594Z,94934.66
2022-09-03T04:11:39.317Z,94941.55
2022-09-03T04:14:06.076Z,94941.36
2022-09-03T04:16:33.374Z,94939.91
2022-09-03T04:19:00.815Z,94936.80
2022-09-03T04:21:30.624Z,94938.63
2022-09-03T04:23:59.639Z,94935.08
2022-09-03T04:26:32.158Z,94933.55
2022-09-03T04:29:10.576Z,94933.66
2022-09-03T04:31:39.160Z,94934.85
2022-09-03T04:34:07.039Z,94938.15
2022-09-03T04:36:35.332Z,94941.55
2022-09-03T04:39:02.456Z,94944.64
2022-09-03T04:41:31.415Z,94938.13
2022-09-03T04:43:59.883Z,94943.73
2022-09-03T04:46:33.476Z,94952.05
2022-09-03T04:49:02.120Z,94951.96
2022-09-03T04:51:30.228Z,94947.48
2022-09-03T04:54:01.349Z,94945.65
2022-09-03T04:56:31.191Z,94942.13
2022-09-03T04:59:01.671Z,94942.48
2022-09-03T05:01:31.223Z,94944.06
2022-09-03T05:03:59.256Z,94946.36
2022-09-03T05:06:28.421Z,94940.40
2022-09-03T05:08:56.187Z,94932.21
2022-09-03T05:11:24.553Z,94931.34
2022-09-03T05:13:54.052Z,94933.98
2022-09-03T05:16:22.101Z,94936.64
2022-09-03T05:18:48.988Z,94936.85
2022-09-03T05:21:18.823Z,94934.08
2022-09-03T05:23:48.025Z,94932.30
2022-09-03T05:26:18.850Z,94935.79
2022-09-03T05:28:47.256Z,94939.99
2022-09-03T05:31:19.561Z,94943.52
2022-09-03T05:33:52.858Z,94946.05
2022-09-03T05:36:24.148Z,94953.22
2022-09-03T05:38:54.381Z,94951.98
2022-09-03T05:41:22.505Z,94946.86
2022-09-03T05:43:59.178Z,94942.52
2022-09-03T05:46:33.850Z,94939.55
2022-09-03T05:49:06.638Z,94942.69
2022-09-03T05:51:35.107Z,94945.79
2022-09-03T05:54:04.094Z,94951.03
2022-09-03T05:56:32.971Z,94956.13
2022-09-03T05:59:02.060Z,94960.39
2022-09-03T06:01:35.526Z,94961.09
2022-09-03T06:04:05.360Z,94959.77
2022-09-03T06:06:34.611Z,94959.06
2022-09-03T06:09:07.377Z,94951.48
2022-09-03T06:11:35.704Z,94948.30
2022-09-03T06:14:05.970Z,94950.33
2022-09-03T06:16:35.243Z,94953.19
2022-09-03T06:19:02.843Z,94957.23
2022-09-03T06:21:30.242Z,94953.14
2022-09-03T06:24:00.000Z,94951.70
2022-09-03T06:26:29.480Z,94949.54
2022-09-03T06:28:57.418Z,94951.26
2022-09-03T06:31:24.666Z,94956.20
2022-09-03T06:33:53.223Z,94956.71
2022-09-03T06:36:21.595Z,94958.86
2022-09-03T06:38:52.434Z,94959.00
2022-09-03T06:41:25.140Z,94963.02
2022-09-03T06:43:54.645Z,94960.55
2022-09-03T06:46:24.153Z,94956.52
2022-09-03T06:48:51.819Z,94956.02
2022-09-03T06:51:24.812Z,94956.65
2022-09-03T06:53:54.694Z,94956.53
2022-09-03T06:56:39.964Z,94959.81
2022-09-03T06:59:12.810Z,94958.55
2022-09-03T07:01:41.283Z,94963.16
2022-09-03T07:04:13.733Z,94963.84
2022-09-03T07:06:43.025Z,94962.81
2022-09-03T07:09:11.943Z,94965.23
2022-09-03T07:11:47.724Z,94963.59
2022-09-03T07:14:15.684Z,94963.58
2022-09-03T07:16:43.547Z,94962.42
2022-09-03T07:19:11.188Z,94964.58
2022-09-03T07:21:38.448Z,94967.42
2022-09-03T07:24:06.363Z,94966.34
2022-09-03T07:26:39.687Z,94969.34
2022-09-03T07:29:08.089Z,94972.36
2022-09-03T07:31:38.340Z,94969.99
2022-09-03T07:34:11.171Z,94966.27
2022-09-03T07:36:42.007Z,94962.05
2022-09-03T07:39:09.990Z,94963.70
2022-09-03T07:41:37.700Z,94963.89
2022-09-03T07:44:07.721Z,94969.44
2022-09-03T07:46:38.004Z,94979.16
2022-09-03T07:49:11.828Z,94983.64
2022-09-03T07:51:39.826Z,94986.34
2022-09-03T07:54:11.925Z,94988.19
2022-09-03T07:56:40.697Z,94987.41
2022-09-03T07:59:09.840Z,94985.77
2022-09-03T08:01:38.331Z,94983.66
2022-09-03T08:04:09.791Z,94986.64
2022-09-03T08:06:41.380Z,94994.55
2022-09-03T08:09:11.748Z,94994.20
2022-09-03T08:11:41.882Z,94993.92
2022-09-03T08:14:11.653Z,94992.70
2022-09-03T08:16:42.132Z,94996.14
2022-09-03T08:19:10.613Z,94990.33
2022-09-03T08:21:37.925Z,94998.13
2022-09-03T08:24:06.607Z,94993.98
2022-09-03T08:26:37.902Z,95001.91
2022-09-03T08:29:05.912Z,95002.25
2022-09-03T08:31:34.911Z,95007.89
2022-09-03T08:34:07.040Z,95008.77
2022-09-03T08:36:36.763Z,95004.67
2022-09-03T08:39:10.162Z,94996.46
2022-09-03T08:41:56.251Z,94993.75
2022-09-03T08:48:16.462Z,94991.35
2022-09-03T08:50:50.192Z,94995.66
2022-09-03T08:53:16.950Z,94996.02
2022-09-03T08:55:50.903Z,94994.80
2022-09-03T08:58:22.349Z,94995.23
2022-09-03T09:01:04.381Z,94996.52
2022-09-03T09:03:50.659Z,95001.84
2022-09-03T09:06:34.181Z,94996.51
2022-09-03T09:09:04.051Z,95001.61
2022-09-03T09:11:46.253Z,95008.67
2022-09-03T09:15:13.323Z,95010.17
2022-09-03T09:18:01.623Z,95010.61
2022-09-03T09:21:01.743Z,95018.95
2022-09-03T09:24:07.445Z,95012.15
2022-09-03T09:26:34.628Z,95012.81
2022-09-03T09:29:14.175Z,95015.05
2022-09-03T09:31:44.964Z,95017.46
2022-09-03T09:34:12.649Z,95016.45
2022-09-03T09:36:48.909Z,95018.16
2022-09-03T09:39:19.499Z,95021.77
2022-09-03T09:42:09.771Z,95019.61
2022-09-03T09:44:41.756Z,95023.71
2022-09-03T09:47:14.061Z,95019.34
2022-09-03T09:50:00.990Z,95018.17
2022-09-03T09:52:31.834Z,95017.52
2022-09-03T09:55:15.222Z,95016.02
2022-09-03T09:57:42.167Z,95020.48
2022-09-03T10:00:13.163Z,95021.22
2022-09-03T10:02:47.517Z,95026.63
2022-09-03T10:05:31.124Z,95024.31
2022-09-03T10:08:04.727Z,95020.16
2022-09-03T10:10:38.079Z,95024.10
2022-09-03T10:13:19.532Z,95022.09
2022-09-03T10:15:56.106Z,95027.29
2022-09-03T10:18:41.807Z,95021.79
2022-09-03T10:21:20.771Z,95025.23
2022-09-03T10:23:57.745Z,95026.14
2022-09-03T10:26:32.182Z,95022.56
2022-09-03T10:29:07.316Z,95026.98
2022-09-03T10:31:47.273Z,95028.05
2022-09-03T10:34:34.647Z,95018.50
2022-09-03T10:37:28.934Z,95017.39
2022-09-03T10:40:19.163Z,95011.45
2022-09-03T10:42:48.945Z,95013.52
2022-09-03T10:45:51.815Z,95013.80
2022-09-03T10:48:56.432Z,95008.50
2022-09-03T10:51:36.690Z,95006.20
2022-09-03T10:54:38.143Z,95009.77
2022-09-03T10:57:26.707Z,95003.75
2022-09-03T10:59:56.949Z,95004.48
2022-09-03T11:02:47.552Z,95002.36
2022-09-03T11:05:55.426Z,95002.98
2022-09-03T11:08:28.763Z,95003.27
2022-09-03T11:11:04.686Z,95005.45
2022-09-03T11:13:36.784Z,95001.38
2022-09-03T11:16:20.247Z,95000.59
2022-09-03T11:18:54.788Z,95000.92
2022-09-03T11:21:27.233Z,95000.70
2022-09-03T11:24:07.846Z,95001.84
2022-09-03T11:26:35.958Z,95010.44
2022-09-03T11:29:49.458Z,95005.85
2022-09-03T11:32:19.515Z,94997.39
2022-09-03T11:34:51.913Z,94997.90
2022-09-03T11:37:25.139Z,94997.52
2022-09-03T11:39:57.086Z,94994.61
2022-09-03T11:42:32.960Z,94995.70
2022-09-03T11:45:14.500Z,94996.33
2022-09-03T11:47:44.204Z,94997.23
2022-09-03T11:50:32.474Z,94991.98
2022-09-03T11:53:25.397Z,94992.02
2022-09-03T11:56:01.030Z,94993.27
2022-09-03T11:58:43.869Z,94993.48
2022-09-03T12:01:16.413Z,94993.70
2022-09-03T12:03:52.609Z,94992.76
2022-09-03T12:06:31.497Z,94988.80
2022-09-03T12:09:23.150Z,94984.22
2022-09-03T12:11:49.867Z,94979.75
2022-09-03T12:14:33.633Z,94974.92
2022-09-03T12:17:16.394Z,94971.70
2022-09-03T12:19:51.555Z,94973.42
2022-09-03T12:22:21.068Z,94972.64
2022-09-03T12:24:48.433Z,94969.09
2022-09-03T12:27:26.390Z,94961.20
2022-09-03T12:30:00.340Z,94962.30
2022-09-03T12:32:37.438Z,94964.15
2022-09-03T12:38:23.948Z,94954.65
2022-09-03T12:43:38.628Z,94954.44
2022-09-03T12:46:13.864Z,94950.35
2022-09-03T12:51:52.099Z,94943.79
2022-09-03T12:54:22.726Z,94941.11
2022-09-03T12:56:59.030Z,94941.05
2022-09-03T12:59:36.832Z,94938.48
2022-09-03T13:05:15.838Z,94939.46
2022-09-03T13:07:53.156Z,94939.77
2022-09-03T13:10:30.499Z,94937.59
2022-09-03T13:13:03.702Z,94932.66
2022-09-03T13:15:31.114Z,94930.19
2022-09-03T13:18:04.241Z,94924.98
2022-09-03T13:21:14.444Z,94926.08
2022-09-03T13:23:52.756Z,94921.30
2022-09-03T13:26:36.660Z,94918.51
2022-09-03T13:29:20.489Z,94918.19
2022-09-03T13:31:53.669Z,94920.49
2022-09-03T13:34:50.889Z,94922.71
2022-09-03T13:37:43.890Z,94916.46
2022-09-03T13:40:42.247Z,94912.02
2022-09-03T13:43:13.717Z,94904.04
2022-09-03T13:45:46.880Z,94901.77
2022-09-03T13:51:55.199Z,94898.05
2022-09-03T13:57:47.422Z,94892.05
2022-09-03T14:00:42.875Z,94891.77
2022-09-03T14:03:26.973Z,94887.09
2022-09-03T14:06:07.807Z,94891.16
2022-09-03T14:08:48.585Z,94893.80
2022-09-03T14:11:53.240Z,94893.86
2022-09-03T14:14:52.644Z,94896.34
2022-09-03T14:17:44.492Z,94893.49
2022-09-03T14:20:22.723Z,94896.59
2022-09-03T14:23:19.028Z,94897.66
2022-09-03T14:25:57.452Z,94898.07
2022-09-03T14:28:46.266Z,94895.56
2022-09-03T14:31:36.767Z,94890.59
2022-09-03T14:34:12.897Z,94898.81
2022-09-03T14:37:16.325Z,94904.13
2022-09-03T14:40:43.302Z,94908.84
2022-09-03T14:43:25.860Z,94908.74
2022-09-03T14:46:11.279Z,94908.27
2022-09-03T14:49:10.366Z,94905.00
2022-09-03T14:52:17.398Z,94905.41
2022-09-03T14:54:57.157Z,94906.67
2022-09-03T14:57:39.187Z,94904.58
2022-09-03T15:00:20.098Z,94902.77
2022-09-03T15:03:05.735Z,94902.42
2022-09-03T15:05:51.862Z,94900.90
2022-09-03T15:08:19.177Z,94901.91
2022-09-03T15:10:56.497Z,94897.67
2022-09-03T15:13:31.022Z,94898.39
2022-09-03T15:16:29.581Z,94894.06
2022-09-03T15:19:17.045Z,94900.16
2022-09-03T15:22:01.699Z,94906.65
2022-09-03T15:24:37.588Z,94902.02
2022-09-03T15:27:23.176Z,94895.72
2022-09-03T15:29:58.476Z,94891.69
2022-09-03T15:32:37.533Z,94889.73
2022-09-03T15:35:44.069Z,94895.67
2022-09-03T15:55:47.692Z,94878.04
2022-09-03T15:59:23.532Z,94879.89
2022-09-03T16:06:04.764Z,94885.08
2022-09-03T16:12:50.079Z,94886.49
2022-09-03T16:15:26.925Z,94889.08
2022-09-03T16:22:13.975Z,94907.49
2022-09-03T16:24:51.473Z,94909.60
2022-09-03T16:30:59.450Z,94910.45
2022-09-03T16:33:49.969Z,94908.97
2022-09-03T16:36:24.685Z,94911.60
2022-09-03T16:39:03.652Z,94910.62
2022-09-03T16:41:58.731Z,94906.72
2022-09-03T16:44:46.129Z,94901.40
2022-09-03T16:47:34.544Z,94905.19
2022-09-03T16:50:29.567Z,94907.98
2022-09-03T16:53:11.328Z,94912.24
2022-09-03T16:55:50.255Z,94913.63
2022-09-03T16:58:35.800Z,94914.77
2022-09-03T17:01:25.135Z,94914.61
2022-09-03T17:04:23.066Z,94915.47
2022-09-03T17:07:08.301Z,94919.02
2022-09-03T17:10:01.198Z,94922.45
2022-09-03T17:12:31.090Z,94923.48
2022-09-03T17:15:30.693Z,94925.45
2022-09-03T17:18:06.523Z,94935.57
2022-09-03T17:21:10.319Z,94936.39
2022-09-03T17:23:43.178Z,94932.98
2022-09-03T17:26:13.555Z,94930.63
2022-09-03T17:29:08.628Z,94931.41
2022-09-03T17:31:51.738Z,94937.31
2022-09-03T17:34:33.525Z,94945.36
2022-09-03T17:37:17.417Z,94951.59
2022-09-03T17:39:59.603Z,94949.08
2022-09-03T17:43:03.405Z,94951.06
2022-09-03T17:45:47.429Z,94953.58
2022-09-03T17:48:42.388Z,94956.91
2022-09-03T17:51:28.071Z,94963.94
2022-09-03T17:54:23.158Z,94973.61
2022-09-03T17:57:13.739Z,94978.88
2022-09-03T18:00:13.930Z,94982.67
2022-09-03T18:02:52.628Z,94976.14
2022-09-03T18:05:21.768Z,94978.45
2022-09-03T18:08:07.547Z,94979.31
2022-09-03T18:10:37.047Z,94979.32
2022-09-03T18:13:13.550Z,94980.30
2022-09-03T18:15:59.739Z,94984.65
2022-09-03T18:18:29.099Z,94988.83
2022-09-03T18:21:31.773Z,94986.66
2022-09-03T18:24:23.590Z,94994.58
2022-09-03T18:27:39.248Z,94995.58
2022-09-03T18:30:30.989Z,94989.84
2022-09-03T18:33:16.891Z,94986.41
2022-09-03T18:36:04.565Z,94985.89
2022-09-03T18:38:53.806Z,94990.79
2022-09-03T18:41:42.674Z,95002.27
2022-09-03T18:44:28.017Z,95006.88
2022-09-03T18:48:02.039Z,95008.81
2022-09-03T18:50:55.866Z,95012.08
2022-09-03T18:54:00.320Z,95008.88
2022-09-03T18:57:27.876Z,95015.26
2022-09-03T19:00:34.387Z,95015.81
2022-09-03T19:03:19.970Z,95014.56
2022-09-03T19:06:45.644Z,95016.80
2022-09-03T19:09:34.087Z,95010.23
2022-09-03T19:12:42.387Z,95007.92
2022-09-03T19:15:58.812Z,95013.67
2022-09-03T19:19:09.717Z,95016.03
2022-09-03T19:22:07.271Z,95024.48
2022-09-03T19:24:52.684Z,95022.08
2022-09-03T19:28:21.254Z,95032.41
2022-09-03T19:31:07.373Z,95033.34
2022-09-03T19:34:16.568Z,95036.15
2022-09-03T19:37:19.743Z,95036.63
2022-09-03T19:40:20.232Z,95035.14
2022-09-03T19:43:55.813Z,95039.48
2022-09-03T19:47:08.093Z,95046.61
2022-09-03T19:50:12.261Z,95050.36
2022-09-03T19:53:07.243Z,95051.66
2022-09-03T19:56:07.168Z,95052.65
2022-09-03T19:58:57.263Z,95054.02
2022-09-03T20:01:48.609Z,95053.70
2022-09-03T20:04:37.611Z,95058.36
2022-09-03T20:07:28.112Z,95058.84
2022-09-03T20:10:18.465Z,95060.33
2022-09-03T20:12:53.122Z,95058.83
2022-09-03T20:15:27.297Z,95055.65
2022-09-03T20:18:13.997Z,95058.84
2022-09-03T20:20:50.511Z,95063.13
2022-09-03T20:23:30.842Z,95065.20
2022-09-03T20:26:10.465Z,95067.30
2022-09-03T20:29:05.528Z,95066.10
2022-09-03T20:31:43.481Z,95066.66
2022-09-03T20:34:32.385Z,95069.36
2022-09-03T20:37:27.999Z,95074.89
2022-09-03T20:40:16.201Z,95071.95
2022-09-03T20:43:17.009Z,95082.74
2022-09-03T20:46:18.208Z,95084.74
2022-09-03T20:49:13.098Z,95087.07
2022-09-03T20:51:56.510Z,95087.95
2022-09-03T20:54:36.234Z,95083.52
2022-09-03T20:57:15.804Z,95081.95
2022-09-03T21:00:03.042Z,95084.52
2022-09-03T21:02:38.980Z,95087.89
2022-09-03T21:05:09.205Z,95087.34
2022-09-03T21:07:53.215Z,95086.21
2022-09-03T21:10:52.725Z,95090.44
2022-09-03T21:13:25.560Z,95096.98
2022-09-03T21:16:00.864Z,95102.58
2022-09-03T21:18:37.068Z,95104.40
2022-09-03T21:21:16.007Z,95100.08
2022-09-03T21:23:49.151Z,95097.64
2022-09-03T21:26:22.481Z,95097.19
2022-09-03T21:28:58.688Z,95099.52
2022-09-03T21:31:38.601Z,95093.98
2022-09-03T21:34:21.047Z,95094.52
2022-09-03T21:36:49.959Z,95096.14
2022-09-03T21:39:21.482Z,95094.63
2022-09-03T21:41:58.629Z,95094.73
2022-09-03T21:44:40.726Z,95090.69
2022-09-03T21:47:16.290Z,95084.26
2022-09-03T21:50:04.888Z,95086.73
2022-09-03T21:52:51.904Z,95089.42
2022-09-03T21:55:41.950Z,95093.71
2022-09-03T21:58:18.577Z,95096.77
2022-09-03T22:00:47.051Z,95098.63
2022-09-03T22:03:14.259Z,95102.71
2022-09-03T22:06:03.586Z,95103.58
2022-09-03T22:08:45.415Z,95101.77
2022-09-03T22:11:15.787Z,95100.25
2022-09-03T22:13:59.105Z,95102.55
2022-09-03T22:16:51.002Z,95100.58
2022-09-03T22:19:18.593Z,95100.70
2022-09-03T22:22:00.013Z,95103.52
2022-09-03T22:25:08.341Z,95107.05
2022-09-03T22:27:54.374Z,95107.74
2022-09-03T22:30:21.622Z,95115.25
2022-09-03T22:33:49.732Z,95119.77
2022-09-03T22:36:37.151Z,95123.86
2022-09-03T22:39:13.719Z,95126.45
2022-09-03T22:41:40.400Z,95125.48
2022-09-03T22:44:30.523Z,95126.15
2022-09-03T22:47:09.670Z,95131.13
2022-09-03T22:50:07.097Z,95130.48
2022-09-03T22:52:41.988Z,95128.00
2022-09-03T22:55:14.183Z,95129.21
2022-09-03T22:57:52.369Z,95128.90
2022-09-03T23:00:19.804Z,95132.85
2022-09-03T23:02:55.293Z,95130.79
2022-09-03T23:05:48.964Z,95122.27
2022-09-03T23:08:30.117Z,95132.23
2022-09-03T23:11:13.448Z,95131.05
2022-09-03T23:13:48.991Z,95133.14
2022-09-03T23:16:32.652Z,95135.37
2022-09-03T23:21:50.769Z,95143.98
2022-09-03T23:24:51.100Z,95145.94
2022-09-03T23:27:23.474Z,95141.45
2022-09-03T23:30:01.946Z,95140.16
2022-09-03T23:32:33.236Z,95143.52
2022-09-03T23:35:02.311Z,95146.28
2022-09-03T23:37:35.054Z,95140.50
2022-09-03T23:40:28.540Z,95143.07
2022-09-03T23:43:06.262Z,95144.94
2022-09-03T23:46:05.432Z,95139.47
2022-09-03T23:48:58.287Z,95143.23
2022-09-03T23:52:16.590Z,95143.98
2022-09-03T23:55:01.902Z,95141.27
2022-09-03T23:57:35.427Z,95142.70
